Time;durP1;ratioP1;P1;durP2;ratioP2;P2;SDS_P1;SDS_P2;PMS_P1;PMS_P2;Temp;Humidity;BMP_temperature;BMP_pressure;BME280_temperature;BME280_humidity;BME280_pressure;Samples;Min_cycle;Max_cycle;Signal;HPM_P1;HPM_P2
2023/10/07 00:01:04;;;;;;;2.28;1.30;;;;;;;14.02;60.00;100367.62;4478191;31;33860;-80
2023/10/07 00:03:38;;;;;;;2.67;1.17;;;;;;;14.02;59.90;100364.16;4482609;31;33497;-81
2023/10/07 00:06:10;;;;;;;3.08;1.48;;;;;;;13.79;60.71;100367.13;4486085;31;33024;-81
2023/10/07 00:08:39;;;;;;;2.17;1.15;;;;;;;14.01;59.94;100360.69;4488179;31;33498;-81
2023/10/07 00:11:11;;;;;;;2.92;1.30;;;;;;;13.99;59.90;100362.47;4485365;31;33744;-81
2023/10/07 00:13:42;;;;;;;2.67;1.30;;;;;;;13.92;59.98;100350.41;4487300;31;34515;-80
2023/10/07 00:16:14;;;;;;;3.00;1.15;;;;;;;13.82;60.14;100354.91;4483335;31;33203;-82
2023/10/07 00:18:45;;;;;;;1.55;1.10;;;;;;;13.77;60.24;100345.41;4489501;31;34390;-79
2023/10/07 00:21:24;;;;;;;2.25;1.58;;;;;;;13.66;60.46;100340.38;4488972;31;34566;-81
2023/10/07 00:23:53;;;;;;;4.60;1.60;;;;;;;13.81;59.86;100344.50;4483717;31;33999;-80
2023/10/07 00:26:22;;;;;;;3.53;1.27;;;;;;;13.66;60.25;100337.78;4488715;31;33262;-79
2023/10/07 00:29:00;;;;;;;5.28;1.15;;;;;;;13.94;59.55;100347.75;4487010;31;33748;-81
2023/10/07 00:31:33;;;;;;;2.15;1.15;;;;;;;13.70;60.00;100339.47;4485846;31;34736;-82
2023/10/07 00:34:05;;;;;;;1.87;1.15;;;;;;;13.86;59.69;100340.91;4492124;31;33952;-81
2023/10/07 00:36:42;;;;;;;1.25;1.08;;;;;;;13.69;60.35;100336.84;4480366;31;33601;-81
2023/10/07 00:39:19;;;;;;;3.10;1.40;;;;;;;13.78;59.99;100336.72;4488964;31;34198;-81
2023/10/07 00:41:54;;;;;;;1.70;1.10;;;;;;;13.84;59.51;100339.22;4484015;31;34122;-82
2023/10/07 00:44:23;;;;;;;2.78;1.30;;;;;;;13.50;60.42;100326.69;4472734;31;34558;-80
2023/10/07 00:47:11;;;;;;;2.25;1.30;;;;;;;13.64;60.02;100329.97;4481868;31;33264;-81
2023/10/07 00:49:54;;;;;;;3.22;1.40;;;;;;;13.49;60.59;100318.94;4480398;32;33290;-82
2023/10/07 00:52:40;;;;;;;2.62;1.65;;;;;;;13.42;60.68;100312.94;4481411;31;34853;-82
2023/10/07 00:55:17;;;;;;;2.55;1.37;;;;;;;13.46;60.31;100306.81;4481498;31;34527;-83
2023/10/07 00:57:51;;;;;;;3.25;1.37;;;;;;;13.44;60.44;100295.53;4484956;31;33221;-83
2023/10/07 01:00:40;;;;;;;3.33;1.42;;;;;;;13.43;60.55;100299.91;4491300;31;33397;-83
2023/10/07 01:03:32;;;;;;;3.45;1.52;;;;;;;13.61;60.17;100300.50;4484103;31;34510;-82
2023/10/07 01:06:11;;;;;;;1.23;0.93;;;;;;;13.69;59.79;100295.13;4486276;31;33570;-82
2023/10/07 01:08:48;;;;;;;2.00;1.35;;;;;;;13.62;60.04;100292.62;4477904;31;33194;-82
2023/10/07 01:11:24;;;;;;;1.70;1.30;;;;;;;13.47;60.44;100290.25;4483102;31;34394;-83
2023/10/07 01:13:56;;;;;;;5.78;1.90;;;;;;;13.65;59.88;100290.00;4477974;31;34407;-81
2023/10/07 01:16:42;;;;;;;3.15;1.40;;;;;;;13.59;60.11;100282.25;4477083;31;33766;-81
2023/10/07 01:19:26;;;;;;;2.92;1.60;;;;;;;13.61;59.95;100279.62;4489197;31;33013;-82
2023/10/07 01:22:01;;;;;;;1.60;1.10;;;;;;;13.49;60.48;100279.81;4485306;31;33485;-81
2023/10/07 01:24:44;;;;;;;3.03;1.60;;;;;;;13.33;60.87;100271.37;4483248;31;33839;-80
2023/10/07 01:27:19;;;;;;;3.62;2.03;;;;;;;13.56;60.30;100265.81;4477666;31;34399;-81
2023/10/07 01:29:49;;;;;;;1.80;1.20;;;;;;;13.84;59.06;100268.78;4486037;31;33659;-81
2023/10/07 01:32:19;;;;;;;1.98;1.30;;;;;;;13.78;59.02;100268.91;4478453;31;33864;-80
2023/10/07 01:34:52;;;;;;;4.07;1.70;;;;;;;13.50;59.95;100271.09;4483025;31;33254;-82
2023/10/07 01:37:22;;;;;;;3.72;1.67;;;;;;;13.43;60.09;100268.63;4479258;31;33766;-81
2023/10/07 01:39:53;;;;;;;3.60;1.57;;;;;;;13.53;59.71;100264.13;4483154;31;33355;-81
2023/10/07 01:42:33;;;;;;;2.03;1.10;;;;;;;13.73;59.30;100262.94;4486104;31;33752;-81
2023/10/07 01:45:11;;;;;;;2.42;1.25;;;;;;;13.34;60.26;100260.94;4493080;31;34871;-80
2023/10/07 01:47:39;;;;;;;4.25;1.40;;;;;;;13.39;60.14;100264.31;4483706;31;34364;-81
2023/10/07 01:50:12;;;;;;;4.87;1.42;;;;;;;13.24;60.48;100259.31;4478512;31;33023;-81
2023/10/07 01:52:45;;;;;;;6.55;1.27;;;;;;;13.40;60.12;100258.22;4486316;31;34504;-79
2023/10/07 01:55:16;;;;;;;2.40;1.17;;;;;;;13.14;60.72;100253.38;4490683;31;32492;-80
2023/10/07 01:57:45;;;;;;;3.55;2.05;;;;;;;13.38;59.71;100253.91;4481090;32;33407;-80
2023/10/07 02:00:34;;;;;;;2.03;1.30;;;;;;;13.18;60.34;100249.84;4476060;32;33906;-81
2023/10/07 02:03:08;;;;;;;2.15;1.42;;;;;;;13.15;60.54;100251.63;4495872;31;33262;-81
2023/10/07 02:05:40;;;;;;;1.37;1.15;;;;;;;13.12;60.66;100246.44;4499445;31;34425;-80
2023/10/07 02:08:14;;;;;;;3.40;1.37;;;;;;;13.28;60.01;100247.97;4478738;31;32157;-80
2023/10/07 02:10:45;;;;;;;2.30;1.40;;;;;;;13.15;60.77;100254.25;4482877;31;33085;-80
2023/10/07 02:13:19;;;;;;;2.42;1.42;;;;;;;13.13;60.69;100251.66;4477409;31;34375;-79
2023/10/07 02:15:49;;;;;;;2.35;1.55;;;;;;;13.07;60.97;100251.75;4480487;31;33815;-80
2023/10/07 02:18:18;;;;;;;4.43;1.67;;;;;;;12.96;61.13;100245.84;4481044;31;34357;-80
2023/10/07 02:20:52;;;;;;;2.33;1.92;;;;;;;13.08;61.08;100244.81;4482144;31;33029;-80
2023/10/07 02:23:34;;;;;;;2.60;1.10;;;;;;;13.19;60.68;100242.88;4487521;31;33550;-81
2023/10/07 02:26:06;;;;;;;1.48;1.00;;;;;;;13.17;61.07;100236.84;4477177;31;33568;-80
2023/10/07 02:28:39;;;;;;;3.03;1.30;;;;;;;13.12;61.10;100234.31;4481933;31;34082;-81
2023/10/07 02:31:08;;;;;;;8.75;1.58;;;;;;;13.20;61.28;100234.19;4486837;31;33278;-80
2023/10/07 02:33:42;;;;;;;3.08;1.25;;;;;;;13.16;61.35;100235.97;4478933;31;33601;-81
2023/10/07 02:36:21;;;;;;;3.42;1.33;;;;;;;13.17;61.32;100239.47;4486240;31;33498;-82
2023/10/07 02:38:52;;;;;;;4.32;1.35;;;;;;;13.17;61.57;100232.50;4477049;31;33779;-81
2023/10/07 02:41:24;;;;;;;;;;;;;;;13.19;61.87;100232.44;4477002;31;34262;-81
2023/10/07 02:43:52;;;;;;;;;;;;;;;13.19;61.96;100230.72;4481296;31;33456;-81
2023/10/07 02:46:34;;;;;;;3.45;1.58;;;;;;;13.24;61.76;100226.31;4484798;31;34824;-81
2023/10/07 02:49:10;;;;;;;3.47;1.37;;;;;;;13.33;61.55;100225.31;4494296;31;33401;-80
2023/10/07 02:51:47;;;;;;;3.37;1.20;;;;;;;13.30;61.82;100219.31;4475583;31;33240;-80
2023/10/07 02:54:19;;;;;;;1.55;1.08;;;;;;;13.22;61.86;100216.81;4477325;32;34508;-80
2023/10/07 02:56:56;;;;;;;1.95;1.10;;;;;;;13.29;61.71;100217.56;4476422;32;35078;-81
2023/10/07 02:59:28;;;;;;;3.50;2.53;;;;;;;13.31;61.68;100210.59;4489108;31;34122;-81
2023/10/07 03:04:58;;;;;;;4.40;2.00;;;;;;;13.26;61.93;100204.56;4488397;31;35240;-80
2023/10/07 03:07:28;;;;;;;3.75;1.95;;;;;;;13.20;62.32;100206.37;4482835;31;33447;-82
2023/10/07 03:10:05;;;;;;;3.83;2.08;;;;;;;13.33;61.77;100201.88;4478087;31;34533;-80
2023/10/07 03:12:36;;;;;;;2.22;1.50;;;;;;;13.20;62.52;100197.72;4477702;31;34260;-82
2023/10/07 03:15:20;;;;;;;;;;;;;;;13.31;62.31;100208.00;4484120;31;34065;-80
2023/10/07 03:17:50;;;;;;;3.83;1.77;;;;;;;13.34;62.31;100210.56;4482656;31;34002;-83
2023/10/07 03:20:28;;;;;;;2.50;1.50;;;;;;;13.37;62.06;100205.28;4491442;31;34432;-81
2023/10/07 03:23:15;;;;;;;5.68;2.00;;;;;;;13.21;62.79;100205.50;4478076;31;34287;-82
2023/10/07 03:26:05;;;;;;;2.95;1.33;;;;;;;13.31;62.64;100210.59;4479498;31;34508;-81
2023/10/07 03:28:37;;;;;;;2.75;1.45;;;;;;;13.15;63.26;100200.41;4476968;31;33551;-82
2023/10/07 03:31:10;;;;;;;3.20;1.55;;;;;;;13.10;63.65;100194.41;4483184;31;33496;-82
2023/10/07 03:33:49;;;;;;;3.47;1.48;;;;;;;13.12;63.60;100197.84;4480599;31;34748;-81
2023/10/07 03:39:23;;;;;;;2.53;1.67;;;;;;;13.17;63.39;100197.78;4442409;32;33585;-81
2023/10/07 03:41:55;;;;;;;3.55;1.62;;;;;;;13.27;63.14;100199.38;4438591;32;33359;-80
2023/10/07 03:44:27;;;;;;;5.75;2.37;;;;;;;13.18;63.34;100199.47;4431832;32;32430;-80
2023/10/07 03:46:57;;;;;;;3.47;1.50;;;;;;;13.22;63.30;100198.56;4439966;32;33476;-80
2023/10/07 03:49:33;;;;;;;4.75;1.45;;;;;;;13.30;63.03;100201.91;4427550;32;34708;-80
2023/10/07 03:52:08;;;;;;;2.85;1.60;;;;;;;13.03;63.66;100200.59;4428954;32;33529;-81
2023/10/07 03:54:40;;;;;;;6.55;2.30;;;;;;;13.05;63.79;100201.44;4433955;32;33002;-82
2023/10/07 03:57:10;;;;;;;8.00;3.10;;;;;;;13.02;64.14;100191.03;4431385;32;33944;-80
2023/10/07 03:59:40;;;;;;;3.87;1.37;;;;;;;13.15;63.33;100200.41;4432915;32;33554;-80
2023/10/07 04:02:29;;;;;;;4.12;1.58;;;;;;;13.07;63.45;100202.28;4434845;32;33229;-83
2023/10/07 04:05:09;;;;;;;3.12;1.55;;;;;;;13.14;63.31;100200.41;4432638;32;34163;-81
2023/10/07 04:07:39;;;;;;;2.75;1.50;;;;;;;13.11;63.65;100203.06;4429506;32;34452;-81
2023/10/07 04:10:21;;;;;;;3.12;1.65;;;;;;;13.08;63.43;100203.97;4438962;32;34476;-81
2023/10/07 04:12:56;;;;;;;2.60;1.40;;;;;;;13.17;63.47;100201.22;4447543;32;34228;-81
2023/10/07 04:15:29;;;;;;;4.00;1.83;;;;;;;13.25;63.30;100193.28;4474749;31;33098;-82
2023/10/07 04:18:00;;;;;;;2.72;1.50;;;;;;;13.16;63.42;100194.28;4486685;31;32763;-81
2023/10/07 04:20:50;;;;;;;1.83;1.60;;;;;;;13.12;63.66;100190.03;4476563;31;33978;-82
2023/10/07 04:23:24;;;;;;;2.42;1.42;;;;;;;13.23;63.42;100192.44;4479596;31;33449;-80
2023/10/07 04:26:05;;;;;;;3.95;1.98;;;;;;;13.19;64.13;100185.56;4491447;31;33086;-81
2023/10/07 04:28:34;;;;;;;4.32;1.90;;;;;;;13.07;64.38;100186.63;4491241;31;34968;-81
2023/10/07 04:31:10;;;;;;;2.53;1.60;;;;;;;13.03;64.56;100182.34;4489115;31;34709;-81
2023/10/07 04:33:47;;;;;;;4.28;1.83;;;;;;;13.03;64.65;100188.41;4477034;32;33561;-82
2023/10/07 04:36:33;;;;;;;6.20;2.67;;;;;;;13.11;64.47;100185.69;4480788;31;33051;-80
2023/10/07 04:39:17;;;;;;;5.45;2.55;;;;;;;12.98;64.79;100182.41;4484774;31;33803;-81
2023/10/07 04:41:56;;;;;;;5.40;2.55;;;;;;;13.11;64.64;100183.09;4489298;31;34269;-81
2023/10/07 04:45:17;;;;;;;4.90;2.03;;;;;;;12.88;65.27;100180.84;4488209;31;34655;-81
2023/10/07 04:47:29;;;;;;;4.28;2.00;;;;;;;12.91;65.47;100179.94;4476423;31;33677;-80
2023/10/07 04:50:05;;;;;;;3.72;1.92;;;;;;;12.95;65.48;100173.78;4482771;31;34550;-82
2023/10/07 04:52:39;;;;;;;3.75;2.05;;;;;;;12.95;65.52;100176.37;4478341;31;33818;-81
2023/10/07 04:55:13;;;;;;;5.53;2.17;;;;;;;13.09;65.49;100179.63;4479419;31;34608;-80
2023/10/07 04:57:56;;;;;;;3.95;1.83;;;;;;;13.01;65.61;100179.75;4491165;31;31568;-82
2023/10/07 05:00:35;;;;;;;5.30;1.98;;;;;;;13.04;65.83;100176.25;4475509;31;33944;-82
2023/10/07 05:03:14;;;;;;;3.62;1.87;;;;;;;12.85;66.93;100185.22;4477762;31;34033;-80
2023/10/07 05:05:43;;;;;;;2.17;1.65;;;;;;;13.04;65.97;100173.63;4476633;31;33537;-82
2023/10/07 05:08:17;;;;;;;4.60;1.83;;;;;;;13.05;66.05;100182.31;4485798;31;34234;-82
2023/10/07 05:10:52;;;;;;;3.30;1.70;;;;;;;13.11;66.12;100179.63;4496132;31;34166;-82
2023/10/07 05:13:24;;;;;;;5.32;2.45;;;;;;;13.09;66.33;100181.38;4481931;31;34613;-82
2023/10/07 05:15:52;;;;;;;2.87;1.80;;;;;;;13.19;65.99;100183.84;4476694;31;33662;-81
2023/10/07 05:18:22;;;;;;;4.60;1.85;;;;;;;13.31;65.90;100171.50;4478760;31;34022;-82
2023/10/07 05:20:51;;;;;;;6.00;2.13;;;;;;;13.37;66.21;100171.41;4483715;31;32957;-81
2023/10/07 05:23:21;;;;;;;2.55;1.70;;;;;;;13.18;67.11;100181.25;4481793;32;33732;-82
2023/10/07 05:25:50;;;;;;;4.03;1.80;;;;;;;13.30;66.82;100182.84;4476417;31;33548;-81
2023/10/07 05:28:21;;;;;;;4.15;1.95;;;;;;;13.49;66.54;100181.62;4479527;31;33016;-80
2023/10/07 05:30:52;;;;;;;4.97;2.42;;;;;;;13.55;66.49;100175.44;4482565;31;33546;-82
2023/10/07 05:33:25;;;;;;;;;;;;;;;13.50;66.87;100177.28;4482786;31;33277;-81
2023/10/07 05:35:59;;;;;;;3.20;1.95;;;;;;;13.55;67.13;100178.91;4482844;31;34623;-80
2023/10/07 05:38:28;;;;;;;3.87;1.70;;;;;;;13.75;66.30;100170.75;4477817;32;33231;-81
2023/10/07 05:41:01;;;;;;;3.35;1.77;;;;;;;13.62;66.45;100179.66;4486294;31;34339;-80
2023/10/07 05:43:31;;;;;;;3.22;2.00;;;;;;;13.96;65.29;100177.28;4478749;31;33925;-81
2023/10/07 05:46:01;;;;;;;2.00;1.42;;;;;;;14.00;65.01;100173.72;4482123;31;34133;-81
2023/10/07 05:48:31;;;;;;;3.78;1.85;;;;;;;13.95;65.00;100177.34;4475802;32;33078;-80
2023/10/07 05:51:00;;;;;;;2.62;1.90;;;;;;;13.95;65.48;100180.78;4478190;31;34645;-80
2023/10/07 05:53:30;;;;;;;3.58;1.75;;;;;;;13.94;65.46;100181.69;4477496;31;33939;-82
2023/10/07 05:55:59;;;;;;;2.85;1.62;;;;;;;14.03;65.71;100189.31;4477365;32;35245;-82
2023/10/07 05:58:28;;;;;;;6.65;2.97;;;;;;;14.15;65.47;100184.75;4480904;31;33472;-81
2023/10/07 06:00:58;;;;;;;4.40;2.20;;;;;;;13.99;66.45;100190.28;4483795;31;33413;-81
2023/10/07 06:03:28;;;;;;;3.15;2.00;;;;;;;14.35;65.46;100193.03;4487282;31;33987;-81
2023/10/07 06:05:58;;;;;;;3.33;1.80;;;;;;;14.25;66.47;100191.50;4478087;31;33793;-80
2023/10/07 06:08:27;;;;;;;4.65;2.10;;;;;;;14.51;65.65;100189.22;4487165;31;32540;-80
2023/10/07 06:10:57;;;;;;;5.78;2.20;;;;;;;14.59;64.92;100189.06;4481035;31;34628;-81
2023/10/07 06:13:27;;;;;;;3.33;2.40;;;;;;;14.40;65.92;100196.44;4481114;31;33273;-80
2023/10/07 06:15:57;;;;;;;4.50;2.03;;;;;;;14.64;65.78;100194.19;4477685;31;33550;-81
2023/10/07 06:18:27;;;;;;;4.15;2.15;;;;;;;14.87;64.44;100202.41;4489568;31;32658;-80
2023/10/07 06:21:11;;;;;;;5.70;2.45;;;;;;;14.93;64.12;100196.16;4487578;31;33794;-81
2023/10/07 06:23:41;;;;;;;5.80;2.67;;;;;;;14.68;65.42;100207.16;4475239;32;33930;-79
2023/10/07 06:26:11;;;;;;;9.20;2.15;;;;;;;14.92;64.86;100197.91;4484369;31;33705;-81
2023/10/07 06:28:44;;;;;;;3.97;2.25;;;;;;;15.13;63.67;100199.19;4482606;31;33109;-82
2023/10/07 06:31:13;;;;;;;3.67;1.92;;;;;;;15.12;63.87;100205.28;4484161;31;33117;-81
2023/10/07 06:33:44;;;;;;;3.97;2.37;;;;;;;15.03;64.31;100202.91;4485436;31;34062;-80
2023/10/07 06:36:14;;;;;;;5.50;2.50;;;;;;;15.16;63.95;100211.31;4480481;31;33208;-80
2023/10/07 06:38:51;;;;;;;4.65;2.20;;;;;;;15.18;63.63;100206.91;4486649;31;33118;-81
2023/10/07 06:41:22;;;;;;;4.12;1.73;;;;;;;15.15;64.28;100204.38;4480515;31;33957;-80
2023/10/07 06:43:51;;;;;;;3.50;1.90;;;;;;;15.41;63.89;100206.34;4489520;31;33946;-82
2023/10/07 06:46:21;;;;;;;5.07;2.85;;;;;;;15.59;63.31;100212.88;4486928;31;33519;-81
2023/10/07 06:48:50;;;;;;;4.00;2.35;;;;;;;15.65;63.35;100209.25;4478614;31;33489;-81
2023/10/07 06:51:20;;;;;;;5.75;2.08;;;;;;;15.81;62.36;100213.22;4481142;31;34159;-81
2023/10/07 06:53:49;;;;;;;3.78;1.87;;;;;;;15.81;62.28;100215.84;4484608;31;34302;-81
2023/10/07 06:56:21;;;;;;;3.50;2.00;;;;;;;15.91;62.10;100219.91;4485937;31;33866;-81
2023/10/07 06:58:53;;;;;;;4.43;2.28;;;;;;;15.94;62.46;100214.59;4483851;31;33123;-80
2023/10/07 07:01:35;;;;;;;3.85;1.85;;;;;;;15.99;62.48;100209.25;4475971;31;34213;-82
2023/10/07 07:04:10;;;;;;;4.70;2.20;;;;;;;16.15;62.29;100218.38;4477758;31;34483;-82
2023/10/07 07:06:43;;;;;;;5.57;1.83;;;;;;;16.35;61.57;100215.22;4485096;31;33872;-82
2023/10/07 07:12:03;;;;;;;4.22;1.87;;;;;;;16.59;60.54;100205.78;4487221;31;34806;-79
2023/10/07 07:14:33;;;;;;;8.23;2.53;;;;;;;16.81;58.92;100211.25;4480304;31;34765;-80
2023/10/07 07:17:29;;;;;;;4.97;2.53;;;;;;;16.68;59.27;100215.12;4476696;31;33091;-80
2023/10/07 07:22:45;;;;;;;3.28;1.80;;;;;;;17.17;57.25;100216.25;4478609;31;33972;-81
2023/10/07 07:25:17;;;;;;;3.67;1.65;;;;;;;16.95;58.01;100215.22;4482601;31;81239;-82
2023/10/07 07:27:48;;;;;;;2.55;1.90;;;;;;;16.96;58.20;100209.97;4475972;32;34539;-81
2023/10/07 07:30:29;;;;;;;2.90;1.70;;;;;;;16.90;58.50;100215.38;4480396;31;32867;-80
2023/10/07 07:33:06;;;;;;;3.95;2.00;;;;;;;17.31;57.47;100210.59;4476483;31;34552;-81
2023/10/07 07:35:39;;;;;;;3.53;1.70;;;;;;;17.45;56.87;100210.13;4483087;31;33748;-80
2023/10/07 07:38:30;;;;;;;3.35;1.75;;;;;;;17.69;56.09;100219.81;4485963;31;33732;-81
2023/10/07 07:41:05;;;;;;;3.28;1.75;;;;;;;17.55;56.78;100219.41;4478736;31;34045;-80
2023/10/07 07:43:35;;;;;;;3.42;1.85;;;;;;;17.67;56.68;100226.87;4483539;31;33682;-81
2023/10/07 07:46:17;;;;;;;3.35;1.85;;;;;;;17.51;56.59;100225.66;4475494;31;34189;-80
2023/10/07 07:48:48;;;;;;;6.35;2.40;;;;;;;17.87;55.80;100223.59;4477568;31;33324;-81
2023/10/07 07:51:17;;;;;;;3.87;1.80;;;;;;;17.80;56.27;100218.56;4485485;31;33070;-82
2023/10/07 07:53:48;;;;;;;2.75;1.58;;;;;;;17.89;56.31;100224.38;4480802;31;33493;-81
2023/10/07 07:56:18;;;;;;;2.50;1.48;;;;;;;18.03;55.75;100212.56;4479646;31;34725;-80
2023/10/07 07:58:48;;;;;;;4.10;1.73;;;;;;;18.15;55.54;100214.75;4473205;32;33905;-80
2023/10/07 08:01:18;;;;;;;;;;;;;;;18.08;56.31;100205.38;4478708;31;33486;-81
2023/10/07 08:03:48;;;;;;;5.43;1.65;;;;;;;18.24;55.63;100209.16;4485051;31;34802;-80
2023/10/07 08:06:20;;;;;;;4.00;1.77;;;;;;;18.49;54.80;100200.38;4478412;31;34130;-80
2023/10/07 08:08:53;;;;;;;4.47;1.62;;;;;;;18.43;54.83;100211.09;4473436;32;34400;-80
2023/10/07 08:11:22;;;;;;;3.05;2.05;;;;;;;18.19;55.54;100205.81;4474132;31;33062;-82
2023/10/07 08:13:53;;;;;;;3.12;1.50;;;;;;;18.52;55.44;100206.34;4487506;31;34587;-80
2023/10/07 08:16:22;;;;;;;3.78;1.98;;;;;;;18.44;55.12;100207.56;4477311;31;33564;-80
2023/10/07 08:18:56;;;;;;;3.65;2.00;;;;;;;18.63;54.45;100200.72;4478869;31;34834;-80
2023/10/07 08:21:29;;;;;;;4.53;1.70;;;;;;;18.58;55.02;100204.41;4483072;31;34422;-81
2023/10/07 08:24:01;;;;;;;3.85;1.52;;;;;;;18.61;54.74;100199.91;4475063;32;34304;-80
2023/10/07 08:26:34;;;;;;;2.08;1.12;;;;;;;18.83;53.46;100199.97;4480284;32;34674;-82
2023/10/07 08:29:04;;;;;;;3.30;1.85;;;;;;;18.98;53.87;100203.75;4483420;31;34731;-82
2023/10/07 08:31:39;;;;;;;2.55;1.58;;;;;;;18.91;53.31;100205.75;4476423;31;33241;-82
2023/10/07 08:34:13;;;;;;;1.65;1.20;;;;;;;18.86;54.18;100199.84;4482344;31;33373;-81
2023/10/07 08:36:47;;;;;;;3.33;1.90;;;;;;;19.03;53.41;100196.53;4477980;31;33210;-82
2023/10/07 08:39:19;;;;;;;2.85;1.40;;;;;;;19.04;52.28;100192.13;4480947;32;33942;-82
2023/10/07 08:41:52;;;;;;;3.20;1.67;;;;;;;19.03;52.87;100190.44;4479520;31;33504;-80
2023/10/07 08:44:29;;;;;;;5.45;1.85;;;;;;;19.08;53.12;100188.47;4473229;31;33698;-80
2023/10/07 08:47:05;;;;;;;4.47;1.62;;;;;;;19.40;51.81;100190.66;4473643;31;34903;-81
2023/10/07 08:49:35;;;;;;;2.72;1.30;;;;;;;19.32;52.09;100189.25;4494669;31;33794;-82
2023/10/07 08:52:08;;;;;;;3.87;1.48;;;;;;;19.32;52.32;100183.97;4489290;31;34287;-80
2023/10/07 08:54:44;;;;;;;3.20;1.20;;;;;;;19.22;51.28;100178.25;4480875;31;33518;-81
2023/10/07 08:57:18;;;;;;;3.03;1.37;;;;;;;19.37;51.39;100188.12;4481682;31;33960;-81
2023/10/07 08:59:52;;;;;;;2.83;1.30;;;;;;;19.38;51.48;100181.97;4481662;31;34288;-80
2023/10/07 09:02:27;;;;;;;4.25;1.70;;;;;;;19.50;50.81;100190.22;4483189;31;32551;-82
2023/10/07 09:04:58;;;;;;;3.55;1.60;;;;;;;19.70;49.84;100189.44;4480938;31;33556;-81
2023/10/07 09:07:32;;;;;;;4.62;1.95;;;;;;;19.64;50.50;100179.13;4479224;31;33741;-81
2023/10/07 09:10:10;;;;;;;2.95;1.40;;;;;;;19.56;50.50;100172.41;4476196;32;33510;-81
2023/10/07 09:12:45;;;;;;;2.83;1.37;;;;;;;19.72;50.31;100179.72;4479296;31;33605;-81
2023/10/07 09:15:20;;;;;;;3.20;1.17;;;;;;;20.06;50.03;100176.44;4491390;31;33553;-82
2023/10/07 09:17:50;;;;;;;3.25;1.20;;;;;;;20.36;49.35;100179.44;4491313;31;34926;-81
2023/10/07 09:20:29;;;;;;;2.78;1.50;;;;;;;20.50;48.52;100173.56;4485845;31;34246;-81
2023/10/07 09:23:14;;;;;;;10.10;1.97;;;;;;;20.69;48.53;100180.66;4482304;31;33414;-81
2023/10/07 09:25:50;;;;;;;2.45;1.17;;;;;;;20.76;47.49;100172.37;4483876;31;35189;-81
2023/10/07 09:28:21;;;;;;;6.55;1.62;;;;;;;20.57;47.42;100176.81;4477761;31;33755;-80
2023/10/07 09:30:51;;;;;;;4.68;1.23;;;;;;;20.64;47.27;100171.16;4484951;31;33771;-80
2023/10/07 09:33:21;;;;;;;6.00;1.92;;;;;;;20.82;47.78;100168.56;4476308;31;33213;-80
2023/10/07 09:36:22;;;;;;;3.50;1.50;;;;;;;20.85;46.56;100182.47;4477757;31;34338;-81
2023/10/07 09:38:42;;;;;;;2.15;1.25;;;;;;;20.86;46.81;100176.25;4477769;31;33913;-81
2023/10/07 09:41:12;;;;;;;4.75;1.60;;;;;;;20.99;47.14;100165.97;4484927;31;32960;-80
2023/10/07 09:43:43;;;;;;;;;;;;;;;21.02;45.84;100170.22;4484840;31;33249;-81
2023/10/07 09:46:11;;;;;;;3.42;1.10;;;;;;;20.98;46.20;100168.69;4487469;31;33626;-81
2023/10/07 09:48:51;;;;;;;3.20;1.60;;;;;;;21.25;46.39;100162.06;4486576;31;33817;-80
2023/10/07 09:51:28;;;;;;;3.33;1.10;;;;;;;21.29;45.97;100162.78;4489522;31;33472;-81
2023/10/07 09:54:16;;;;;;;2.65;1.10;;;;;;;21.46;45.52;100156.66;4474837;32;33609;-81
2023/10/07 09:57:06;;;;;;;3.83;1.40;;;;;;;21.45;45.81;100157.59;4482421;31;33425;-80
2023/10/07 09:59:42;;;;;;;3.03;1.00;;;;;;;21.73;43.28;100151.75;4486693;31;34134;-81
2023/10/07 10:02:42;;;;;;;2.75;1.50;;;;;;;21.91;42.58;100156.03;4478219;31;33852;-80
2023/10/07 10:05:26;;;;;;;3.97;1.45;;;;;;;21.94;42.41;100149.78;4481862;31;33412;-80
2023/10/07 10:08:12;;;;;;;4.45;1.50;;;;;;;21.93;42.39;100145.41;4477636;31;32378;-82
2023/10/07 10:10:44;;;;;;;3.75;1.60;;;;;;;22.06;41.96;100159.69;4481672;31;33677;-80
2023/10/07 10:13:51;;;;;;;2.70;1.52;;;;;;;21.76;42.02;100140.16;4481451;31;33820;-81
2023/10/07 10:16:29;;;;;;;3.40;1.45;;;;;;;21.76;42.31;100145.44;4486554;31;33114;-80
2023/10/07 10:19:16;;;;;;;3.58;1.35;;;;;;;21.75;41.86;100131.41;4486842;31;34664;-82
2023/10/07 10:21:45;;;;;;;2.17;1.20;;;;;;;21.93;42.35;100137.50;4483825;31;34666;-81
2023/10/07 10:24:15;;;;;;;4.37;1.02;;;;;;;22.08;40.41;100135.81;4486356;31;34137;-81
2023/10/07 10:26:44;;;;;;;4.68;1.37;;;;;;;21.99;40.94;100137.19;4478210;31;32490;-82
2023/10/07 10:29:25;;;;;;;1.75;1.05;;;;;;;21.77;41.12;100123.38;4481110;31;34770;-82
2023/10/07 10:31:58;;;;;;;6.20;1.48;;;;;;;22.00;41.33;100128.31;4491707;31;33555;-81
2023/10/07 10:34:29;;;;;;;2.70;1.30;;;;;;;22.17;40.59;100122.94;4488319;31;33616;-81
2023/10/07 10:36:58;;;;;;;3.53;1.10;;;;;;;22.22;41.29;100125.37;4490073;31;33074;-80
2023/10/07 10:39:31;;;;;;;2.40;1.60;;;;;;;22.03;40.44;100122.84;4489610;31;33137;-82
2023/10/07 10:42:13;;;;;;;2.33;1.08;;;;;;;22.03;40.99;100120.19;4487515;31;34308;-81
2023/10/07 10:44:48;;;;;;;7.97;1.52;;;;;;;22.28;40.67;100119.78;4491246;31;34335;-81
2023/10/07 10:47:18;;;;;;;2.53;1.10;;;;;;;22.43;40.33;100114.59;4487888;31;33898;-81
2023/10/07 10:49:54;;;;;;;3.00;1.20;;;;;;;22.54;40.14;100115.69;4488596;31;33614;-81
2023/10/07 10:52:24;;;;;;;2.87;1.48;;;;;;;22.68;39.90;100106.09;4489771;31;34375;-81
2023/10/07 10:54:53;;;;;;;3.90;1.85;;;;;;;22.73;39.49;100112.00;4493664;31;34083;-81
2023/10/07 10:57:24;;;;;;;5.97;2.05;;;;;;;22.43;39.12;100099.56;4490068;31;33751;-80
2023/10/07 10:59:54;;;;;;;2.30;1.25;;;;;;;22.65;39.17;100093.91;4487464;31;34688;-80
2023/10/07 11:02:24;;;;;;;1.62;0.90;;;;;;;22.58;39.06;100080.19;4487904;31;32757;-80
2023/10/07 11:04:55;;;;;;;2.42;1.12;;;;;;;22.90;37.83;100088.06;4490497;31;33528;-82
2023/10/07 11:07:25;;;;;;;1.37;0.88;;;;;;;22.78;37.85;100072.91;4495762;31;33975;-80
2023/10/07 11:09:54;;;;;;;3.00;1.27;;;;;;;23.06;37.95;100069.53;4490468;31;33684;-80
2023/10/07 11:12:27;;;;;;;2.53;0.93;;;;;;;23.26;36.72;100063.06;4488522;31;33655;-80
2023/10/07 11:15:07;;;;;;;2.35;1.50;;;;;;;23.40;35.65;100060.44;4479910;31;34842;-80
2023/10/07 11:17:41;;;;;;;2.25;1.17;;;;;;;23.40;36.55;100060.44;4484332;31;32902;-82
2023/10/07 11:20:17;;;;;;;1.70;0.88;;;;;;;23.55;35.70;100052.50;4490531;31;33770;-81
2023/10/07 11:22:46;;;;;;;2.50;1.17;;;;;;;23.58;35.53;100047.00;4484777;31;34290;-80
2023/10/07 11:25:15;;;;;;;4.25;1.27;;;;;;;23.68;34.63;100042.88;4485676;31;33758;-79
2023/10/07 11:27:44;;;;;;;2.58;1.40;;;;;;;23.67;34.43;100046.44;4480109;31;33285;-80
2023/10/07 11:30:14;;;;;;;2.70;1.20;;;;;;;23.36;34.85;100042.16;4480824;32;34549;-80
2023/10/07 11:32:44;;;;;;;2.45;1.10;;;;;;;23.35;35.05;100040.47;4485142;31;35373;-80
2023/10/07 11:35:19;;;;;;;3.40;1.45;;;;;;;23.53;34.85;100041.13;4474464;32;34473;-81
2023/10/07 11:37:49;;;;;;;1.65;0.90;;;;;;;23.55;34.60;100036.59;4481155;31;33629;-81
2023/10/07 11:40:20;;;;;;;3.53;1.50;;;;;;;23.62;33.38;100038.78;4484036;31;33847;-81
2023/10/07 11:42:49;;;;;;;4.80;1.48;;;;;;;23.82;33.59;100034.94;4481153;31;33102;-82
2023/10/07 11:45:22;;;;;;;2.58;1.02;;;;;;;24.06;33.17;100031.66;4484310;31;33804;-81
2023/10/07 11:47:56;;;;;;;1.42;1.00;;;;;;;23.77;32.45;100031.69;4482612;31;33561;-80
2023/10/07 11:50:27;;;;;;;3.87;1.30;;;;;;;23.77;32.09;100037.00;4483121;31;33534;-80
2023/10/07 11:52:56;;;;;;;2.28;0.93;;;;;;;23.77;31.75;100028.22;4482559;31;34586;-80
2023/10/07 11:55:25;;;;;;;3.70;1.35;;;;;;;23.85;31.97;100025.94;4479638;31;36184;-80
2023/10/07 11:57:55;;;;;;;3.97;1.25;;;;;;;24.04;31.74;100029.12;4479853;31;33273;-81
2023/10/07 12:00:34;;;;;;;4.28;1.37;;;;;;;24.12;30.94;100025.97;4477742;31;33262;-81
2023/10/07 12:03:07;;;;;;;4.32;1.77;;;;;;;24.25;30.32;100026.03;4477364;31;32332;-81
2023/10/07 12:05:38;;;;;;;8.18;3.05;;;;;;;24.18;29.50;100025.56;4489385;31;33521;-80
2023/10/07 12:08:12;;;;;;;1.37;0.80;;;;;;;24.19;30.50;100029.94;4485696;31;33988;-80
2023/10/07 12:10:41;;;;;;;2.35;1.08;;;;;;;23.93;31.00;100017.50;4475346;32;34459;-82